x

Santa Monica Basin - 33nm Wsw Of Santa Monica, Ca (46025) Wave Buoy

2:50 - Thu 29th Jan 2015 All times are PST. -8 hours from GMT.

  • Sig Wave height 3.3ft
  • Swell Direction
  • Peak Period 13s
  • Average Period 9s
  • Wind
    4mph, 7mph gusts
  • Sea Temp 61°f
  • Luft Temp 64°f
  • Sea Pressure 1017.4mb
  • Santa Monica Basin - 33nm Wsw Of Santa Monica, Ca
  • Santa Monica Basin - 33nm Wsw Of Santa Monica, Ca

More Historic Weather Station data

Upgrade to MSW Pro to gain access to the past 30 days of data for over 8000 Wavebouys and Weather Stations around the globe.

Join Pro

Comparision Forecast

View Surf forecast
   
Do 01/29 2:50 3.5ft 13s 9s 4 7 mph 1017.4mb 61f 64f
1:50 4ft 14s 10s  -  2 mph 1017.6mb 61f 64f
12:50 4ft 14s 10s  -  2 mph 1018mb 61f 64f
Mi 01/28 11:50 3.5ft 14s 9s 2
mph
1018.5mb 62f 64f
10:50 4.5ft 14s 9s 4 7 mph 1018.6mb 62f 63f
9:50 4.5ft 13s 9s 7 9 mph 1018.9mb 62f 63f
8:50 4ft 13s 9s 9 11 mph 1019.4mb 62f 62f
7:50 4.5ft 14s 10s 7 9 mph 1019.1mb 62f 62f
6:50 4.5ft 12s 10s 7 9 mph 1019mb 62f 62f
5:50 3.5ft 14s 9s 11 13 mph 1019mb 62f 62f
4:50 4.5ft 14s 11s 11 13 mph 1018.5mb 62f 62f
3:50 3.5ft 12s 11s 9 11 mph 1018.2mb 62f 62f
2:50 4ft 15s 11s 9 11 mph 1019mb 63f 63f
1:50 4ft 14s  -  7 9 mph 1019.1mb 63f 63f
12:50 4ft 14s 11s 7 9 mph 1019.5mb 63f 63f
11:50 4ft 14s 10s 4
mph
1020.2mb 63f 63f
10:50 4.5ft 12s 11s  -  2 mph 1021.1mb 62f 62f
9:50 4ft 14s 10s 4
mph
1021.2mb 62f 61f
8:50 4.5ft 15s 11s 4
mph
1021.2mb 62f 61f
7:50 4ft 14s 10s 4 7 mph 1021.4mb 62f 61f
6:50 4.5ft 14s 11s 4 7 mph 1020.8mb 62f 60f
5:50 4.5ft 13s 10s 4
mph
1020.7mb 62f 60f
4:50 4.5ft 15s 9s 11 13 mph 1020.5mb 62f 60f
3:50 4ft 15s 9s 11 13 mph 1021mb 62f 60f
2:50 4ft 15s 9s 13
mph
1021.7mb 62f 60f
1:50 4.5ft 13s 9s 11 13 mph 1021.9mb 62f 61f
12:50 4.5ft 15s 8s 11
mph
1021.9mb 62f 61f
Di 01/27 11:50 4ft  -  8s 13 16 mph 1022mb 62f 61f
10:50 4.5ft 14s 9s 13 18 mph 1021.5mb 62f 61f
9:50 4.5ft 13s 10s 13 16 mph 1022.1mb 62f 61f
8:50 4ft 14s 9s 9 11 mph 1022.1mb 62f 61f
7:50 3.5ft 13s 9s 9 11 mph 1022.3mb 62f 62f
6:50 4.5ft 14s 10s 11 13 mph 1022.2mb 62f 62f
5:50 3.5ft 15s 10s 11
mph
1021.9mb 62f 62f
4:50 4.5ft 15s 11s 9 11 mph 1021.6mb 62f 62f
3:50 4ft 14s 11s 9 11 mph 1021.8mb 63f 62f
2:50 3.5ft 14s 10s 9 11 mph 1021.9mb 63f 62f
1:50 4.5ft 14s 11s 7
mph
1022mb 63f 62f
12:50 4ft 15s 10s 4
mph
1022.3mb 63f 62f
11:50 4ft 14s 10s 2
mph
1022.8mb 63f 62f
10:50 5ft 15s 10s 4 7 mph 1023.2mb 62f 62f
9:50 4.5ft 14s 10s 7 9 mph 1023mb 62f 61f
8:50 4.5ft 15s 9s 7
mph
1022.9mb 62f 62f
7:50 5ft 15s 10s 4
mph
1022.7mb 62f 61f
6:50 5.5ft 15s 11s 4 7 mph 1022.2mb 62f 61f
5:50 5ft 15s 10s 4
mph
1021.1mb 62f 61f
4:50 5ft 15s 9s 7 9 mph 1020.4mb 62f 60f
3:50 5ft 15s 9s 7 9 mph 1020.3mb 62f 60f
2:50 4.5ft 16s 8s 9 11 mph 1020mb 62f 60f
1:50 5ft 16s 9s 11 13 mph 1019.8mb 62f 60f
12:50 4.5ft 15s 8s 11 13 mph 1019.7mb 62f 60f
Mo 01/26 11:50 4.5ft 15s 8s 13 16 mph 1019.8mb 62f 60f
10:50 4.5ft 15s 7s 13 16 mph 1019.6mb 62f 60f
9:50 5ft 16s 7s 13 16 mph 1019mb 62f 60f
8:50 4.5ft 13s 7s 16 18 mph 1018.6mb 62f 60f
7:50 4.5ft 16s 6s 16 20 mph 1018.5mb 62f 60f
6:50 4.5ft 15s 7s 18 20 mph 1018mb 62f 61f
5:50 4ft 15s 10s 11 18 mph 1017.4mb 62f 63f
4:50 3.5ft 16s 9s 11 13 mph 1016.7mb 62f 63f
3:50 4ft 14s 8s 7 9 mph 1016.4mb 62f 63f
2:50 3.5ft 14s 12s 18 20 mph 1015.8mb 62f 64f
1:50 4.5ft 15s 12s 9
mph
1015mb 63f 65f
12:50 3.5ft 15s 11s 9 11 mph 1014.9mb 63f 65f
11:50 4.5ft 15s 11s 7 9 mph 1015.6mb 63f 66f
10:50 4ft 16s 11s 4
mph
1016.3mb 63f 66f
9:50 4ft 15s 11s 2 4 mph 1016.2mb 62f 65f
8:50 4.5ft 14s 12s 2 4 mph 1016.2mb 62f 65f
7:50 4.5ft 15s 12s 7 9 mph 1016mb 62f 64f
6:50 4ft 15s 11s 4 7 mph 1015.2mb 62f 63f
5:50 4ft 15s 11s 4 7 mph 1014.9mb 62f 64f
4:50  -   -   -  2 4 mph 1014.8mb 62f 63f
3:50 3.5ft 14s 11s 4 7 mph 1015.2mb 62f 63f
2:50 3.5ft 15s 11s 7 9 mph 1015mb 62f 64f
1:50 3.5ft 16s 11s 4
mph
1016.3mb 63f 63f
12:50 3.5ft 15s 11s 2 4 mph 1016.4mb 63f 63f
So 01/25 11:50 3.5ft 15s 11s 4
mph
1017.1mb 63f 63f
10:50 3.5ft 15s 11s 4 7 mph 1017.3mb 63f 64f
9:50 3.5ft 15s 11s 4 7 mph 1017.4mb 63f 66f
8:50 3.5ft 14s 11s 9 11 mph 1016.6mb 63f 66f
7:50 4ft 16s 11s 9 11 mph 1016.3mb 63f 65f
6:50 3.5ft 16s 11s 4
mph
1016mb 63f 66f
5:50 4ft 17s 11s 2 4 mph 1015.8mb 62f 65f
4:50 4ft 16s 11s 2 4 mph 1015.3mb 62f 66f
3:50 3.5ft 14s 11s  -  2 mph 1014.9mb 63f 68f
2:50 4ft 16s 11s  -  2 mph 1014.7mb 64f 67f
1:50 4.5ft 16s  -  4
mph
1014.7mb 64f 66f
12:50 4ft 16s 11s 4 7 mph 1015.4mb 64f 71f
11:50 4.5ft 16s 11s 7
mph
1016.5mb 63f 69f